Time;durP1;ratioP1;P1;durP2;ratioP2;P2;SDS_P1;SDS_P2;PMS_P1;PMS_P2;Temp;Humidity;BMP_temperature;BMP_pressure;BME280_temperature;BME280_humidity;BME280_pressure;Samples;Min_cycle;Max_cycle;Signal;HPM_P1;HPM_P2
2021/12/28 00:00:15;;;;;;;;;;;;;;;-1.05;100.00;99985.03;5007620;28;20084;-76
2021/12/28 00:02:42;;;;;;;72.10;29.08;;;;;;;-1.12;100.00;99973.31;5007011;28;19916;-77
2021/12/28 00:05:09;;;;;;;64.82;27.13;;;;;;;-1.15;100.00;99978.75;4993512;28;20080;-77
2021/12/28 00:07:35;;;;;;;67.80;27.63;;;;;;;-1.08;100.00;99983.47;5010887;28;20042;-77
2021/12/28 00:10:01;;;;;;;63.75;27.23;;;;;;;-1.10;100.00;99976.63;4990467;28;20033;-76
2021/12/28 00:12:30;;;;;;;70.40;30.85;;;;;;;-1.09;100.00;99973.09;5006060;28;20092;-75
2021/12/28 00:15:06;;;;;;;59.60;27.98;;;;;;;-1.09;100.00;99973.09;4989323;28;20730;-77
2021/12/28 00:20:16;;;;;;;62.33;29.38;;;;;;;-1.14;100.00;99941.97;5005881;28;20806;-77
2021/12/28 00:22:41;;;;;;;65.82;29.40;;;;;;;-1.17;100.00;99930.84;4989948;28;20041;-76
2021/12/28 00:25:07;;;;;;;71.63;29.90;;;;;;;-1.17;100.00;99923.00;5005591;28;20033;-76
2021/12/28 00:27:33;;;;;;;;;;;;;;;-1.13;100.00;99929.72;5006316;28;20038;-76
2021/12/28 00:29:58;;;;;;;73.07;29.73;;;;;;;-1.16;100.00;99922.06;5005957;28;19909;-77
2021/12/28 00:32:24;;;;;;;65.53;28.10;;;;;;;-1.17;100.00;99915.16;5007264;28;20041;-77
2021/12/28 00:34:49;;;;;;;71.53;30.73;;;;;;;-1.12;100.00;99928.78;4989319;28;20049;-76
2021/12/28 00:37:15;;;;;;;60.45;27.45;;;;;;;-1.15;100.00;99923.72;4989992;28;20022;-77
2021/12/28 00:39:40;;;;;;;61.53;28.00;;;;;;;-1.17;100.00;99905.53;5005691;28;20153;-77
2021/12/28 00:42:07;;;;;;;64.43;28.98;;;;;;;-1.11;100.00;99920.78;4989481;28;20033;-75
2021/12/28 00:44:33;;;;;;;70.00;29.80;;;;;;;-1.15;100.00;99918.50;4988632;28;20033;-76
2021/12/28 00:46:58;;;;;;;63.70;29.75;;;;;;;-1.18;100.00;99913.47;5006366;28;20033;-77
2021/12/28 00:49:24;;;;;;;63.87;27.93;;;;;;;-1.17;100.00;99902.03;5007290;28;20542;-76
2021/12/28 00:51:50;;;;;;;62.70;28.03;;;;;;;-1.15;100.00;99919.34;5006644;28;20288;-77
2021/12/28 00:54:15;;;;;;;;;;;;;;;-1.09;100.00;99924.16;5007276;28;20038;-77
2021/12/28 00:56:40;;;;;;;70.35;29.40;;;;;;;-1.09;100.00;99920.69;5006824;28;19932;-77
2021/12/28 00:59:06;;;;;;;61.85;27.83;;;;;;;-1.05;100.00;99935.25;4989661;28;20068;-76
2021/12/28 01:01:31;;;;;;;65.38;29.25;;;;;;;-1.19;100.00;99896.09;5006944;28;20048;-76
2021/12/28 01:03:56;;;;;;;67.18;29.23;;;;;;;-1.13;100.00;99914.00;5005503;28;20034;-77
2021/12/28 01:06:22;;;;;;;67.63;29.27;;;;;;;-1.15;100.00;99910.63;5006107;28;20026;-76
2021/12/28 01:08:47;;;;;;;72.28;31.55;;;;;;;-1.08;100.00;99909.25;5006073;28;20321;-77
2021/12/28 01:11:13;;;;;;;68.57;29.43;;;;;;;-1.05;100.00;99916.91;5005790;28;20578;-77
2021/12/28 01:13:38;;;;;;;65.20;28.13;;;;;;;-1.07;100.00;99916.19;5001701;28;20491;-77
2021/12/28 01:16:04;;;;;;;70.67;29.23;;;;;;;-1.08;100.00;99911.88;5006994;28;20507;-77
2021/12/28 01:18:29;;;;;;;68.38;27.73;;;;;;;-1.06;100.00;99918.69;4989390;28;20289;-77
2021/12/28 01:20:55;;;;;;;75.20;29.60;;;;;;;-1.07;100.00;99918.81;5005523;28;20053;-77
2021/12/28 01:23:21;;;;;;;70.72;29.60;;;;;;;-1.13;100.00;99900.88;5005563;28;20034;-76
2021/12/28 01:25:46;;;;;;;60.17;27.23;;;;;;;-1.01;100.00;99917.53;5006569;28;20048;-76
2021/12/28 01:28:12;;;;;;;63.05;28.30;;;;;;;-1.10;100.00;99896.28;5006219;28;20026;-77
2021/12/28 01:30:40;;;;;;;63.45;29.48;;;;;;;-1.21;100.00;99877.03;5010326;28;20547;-77
2021/12/28 01:33:06;;;;;;;68.40;29.80;;;;;;;-1.15;100.00;99871.34;5009033;28;20044;-77
2021/12/28 01:35:32;;;;;;;65.10;29.80;;;;;;;-1.04;100.00;99888.94;4992576;28;20033;-76
2021/12/28 01:37:58;;;;;;;72.63;32.55;;;;;;;-1.13;100.00;99872.91;5008988;28;20432;-77
2021/12/28 01:40:31;;;;;;;70.00;28.45;;;;;;;-1.01;100.00;99900.00;4992550;28;20037;-77
2021/12/28 01:43:11;;;;;;;61.88;27.58;;;;;;;-0.93;100.00;99883.78;4992709;28;20050;-75
2021/12/28 01:45:44;;;;;;;70.10;29.50;;;;;;;-0.91;100.00;99895.81;5009540;28;20056;-76
2021/12/28 01:48:13;;;;;;;66.93;29.88;;;;;;;-0.91;100.00;99903.66;5008947;28;20040;-77
2021/12/28 01:50:39;;;;;;;65.65;28.38;;;;;;;-0.92;100.00;99893.28;5008749;28;20026;-77
2021/12/28 01:53:06;;;;;;;69.72;30.27;;;;;;;-0.90;100.00;99900.09;5046306;23;20029;-75
2021/12/28 01:55:34;;;;;;;71.85;30.63;;;;;;;-0.92;100.00;99888.06;5045593;28;20076;-74
2021/12/28 01:57:59;;;;;;;65.75;28.42;;;;;;;-0.91;100.00;99901.06;5046105;28;20386;-74
2021/12/28 02:00:26;;;;;;;69.37;30.47;;;;;;;-0.88;100.00;99885.09;5046615;28;20029;-74
2021/12/28 02:02:52;;;;;;;63.53;30.08;;;;;;;-0.91;100.00;99885.31;5044030;28;20037;-74
2021/12/28 02:05:17;;;;;;;69.50;30.70;;;;;;;-0.83;100.00;99891.81;5028179;28;20017;-74
2021/12/28 02:07:43;;;;;;;69.65;31.35;;;;;;;-0.89;100.00;99878.19;5044295;28;20029;-74
2021/12/28 02:10:09;;;;;;;66.25;26.70;;;;;;;-0.91;100.00;99872.22;5044887;28;20037;-75
2021/12/28 02:12:35;;;;;;;66.00;30.50;;;;;;;-0.85;100.00;99879.63;5043709;28;20024;-74
2021/12/28 02:15:06;;;;;;;68.50;31.20;;;;;;;-0.87;100.00;99871.06;5044777;28;20044;-75
2021/12/28 02:17:35;;;;;;;70.75;28.45;;;;;;;-0.87;100.00;99865.81;5044617;28;20037;-74
2021/12/28 02:20:07;;;;;;;68.13;30.52;;;;;;;-0.90;100.00;99857.34;5043951;28;20025;-73
2021/12/28 02:22:32;;;;;;;70.63;30.88;;;;;;;-0.85;100.00;99852.59;5030936;28;20114;-74
2021/12/28 02:24:57;;;;;;;64.80;28.33;;;;;;;-0.90;100.00;99839.81;5035513;28;20486;-75
2021/12/28 02:27:26;;;;;;;66.73;31.80;;;;;;;-0.89;100.00;99836.28;5036649;28;20029;-74
2021/12/28 02:29:52;;;;;;;69.75;29.48;;;;;;;-0.87;100.00;99844.00;5038616;28;20358;-74
2021/12/28 02:32:17;;;;;;;69.17;30.27;;;;;;;-0.93;100.00;99821.72;5038720;28;20120;-74
2021/12/28 02:34:45;;;;;;;72.00;29.60;;;;;;;-0.92;100.00;99823.38;5038376;28;20024;-74
2021/12/28 02:37:10;;;;;;;70.68;29.10;;;;;;;-0.87;100.00;99829.13;5036211;28;20087;-73
2021/12/28 02:39:36;;;;;;;64.17;29.67;;;;;;;-0.88;100.00;99816.97;5034832;28;20406;-73
2021/12/28 02:42:01;;;;;;;68.13;31.17;;;;;;;-0.87;100.00;99818.66;5034747;28;20282;-75
2021/12/28 02:44:26;;;;;;;69.43;31.00;;;;;;;-0.88;100.00;99811.72;5035754;28;20477;-74
2021/12/28 02:46:52;;;;;;;73.18;32.42;;;;;;;-0.90;100.00;99802.31;5036939;28;20037;-75
2021/12/28 02:49:17;;;;;;;71.57;30.43;;;;;;;-0.88;100.00;99811.72;5039630;28;20079;-74
2021/12/28 02:51:43;;;;;;;69.68;29.75;;;;;;;-0.89;100.00;99796.97;5020821;28;20279;-73
2021/12/28 02:54:08;;;;;;;71.32;31.23;;;;;;;-0.88;100.00;99805.66;5034424;28;20091;-74
2021/12/28 02:56:33;;;;;;;74.17;32.93;;;;;;;-0.86;100.00;99811.63;5034855;28;20501;-74
2021/12/28 02:59:00;;;;;;;59.30;28.13;;;;;;;-0.89;100.00;99801.34;5021442;28;20409;-74
2021/12/28 03:01:27;;;;;;;;;;;;;;;-0.85;100.00;99811.50;5038354;28;20040;-75
2021/12/28 03:04:05;;;;;;;71.60;30.25;;;;;;;-0.88;100.00;99798.63;5035348;28;19916;-74
2021/12/28 03:06:32;;;;;;;75.97;31.33;;;;;;;-0.92;100.00;99791.91;5017948;28;20030;-74
2021/12/28 03:08:59;;;;;;;68.20;32.42;;;;;;;-0.93;100.00;99792.06;5037343;28;20098;-74
2021/12/28 03:11:26;;;;;;;69.53;30.73;;;;;;;-0.96;100.00;99795.75;5037813;28;20029;-74
2021/12/28 03:13:54;;;;;;;72.32;32.95;;;;;;;-0.99;100.00;99790.69;5041630;28;20051;-74
2021/12/28 03:16:21;;;;;;;68.88;32.20;;;;;;;-0.99;100.00;99792.50;5034325;28;20033;-75
2021/12/28 03:18:47;;;;;;;78.13;33.25;;;;;;;-0.95;100.00;99799.19;5035591;28;20038;-74
2021/12/28 03:21:15;;;;;;;88.03;34.50;;;;;;;-1.01;100.00;99792.59;5038992;28;20551;-74
2021/12/28 03:23:41;;;;;;;70.38;30.75;;;;;;;-1.03;100.00;99785.78;5044045;28;20036;-74
2021/12/28 03:26:07;;;;;;;76.05;32.35;;;;;;;-1.05;100.00;99778.06;5034113;28;20027;-74
2021/12/28 03:28:36;;;;;;;69.60;30.55;;;;;;;-1.08;100.00;99779.13;5034045;28;20128;-74
2021/12/28 03:31:04;;;;;;;75.03;31.67;;;;;;;-1.04;100.00;99790.22;5026969;28;20064;-74
2021/12/28 03:33:34;;;;;;;76.28;32.83;;;;;;;-1.02;100.00;99793.56;5033864;28;20029;-74
2021/12/28 03:36:00;;;;;;;74.43;31.92;;;;;;;-1.01;100.00;99795.22;5025415;28;20608;-74
2021/12/28 03:38:26;;;;;;;78.72;33.65;;;;;;;-1.05;100.00;99783.31;5017373;28;20037;-74
2021/12/28 03:40:53;;;;;;;68.97;31.38;;;;;;;-1.05;100.00;99772.81;5019613;28;20030;-74
2021/12/28 03:43:19;;;;;;;69.90;30.65;;;;;;;-1.01;100.00;99771.63;5037097;28;20040;-74
2021/12/28 03:45:45;;;;;;;74.93;32.53;;;;;;;-1.06;100.00;99766.72;5035899;28;20041;-75
2021/12/28 03:48:11;;;;;;;76.07;32.42;;;;;;;-1.09;100.00;99751.25;5037087;28;20037;-74
2021/12/28 03:50:37;;;;;;;74.60;31.38;;;;;;;-1.06;100.00;99750.19;5036753;28;20025;-74
2021/12/28 03:53:04;;;;;;;75.82;33.58;;;;;;;-1.04;100.00;99753.53;5033252;28;20036;-74
2021/12/28 03:55:30;;;;;;;73.50;33.10;;;;;;;-1.04;100.00;99739.59;5034522;28;20090;-74
2021/12/28 03:57:59;;;;;;;62.45;30.58;;;;;;;-1.07;100.00;99738.88;5036336;28;20048;-74
2021/12/28 04:00:28;;;;;;;73.20;32.65;;;;;;;-1.09;100.00;99745.19;5036895;28;20548;-74
2021/12/28 04:02:53;;;;;;;73.72;32.78;;;;;;;-1.08;100.00;99752.06;5018021;28;20071;-74
2021/12/28 04:05:19;;;;;;;72.15;31.73;;;;;;;-1.03;100.00;99765.69;5034309;28;20057;-75
2021/12/28 04:07:46;;;;;;;66.35;30.80;;;;;;;-1.08;100.00;99746.84;5035978;28;20112;-74
2021/12/28 04:10:15;;;;;;;77.38;34.38;;;;;;;-1.05;100.00;99746.63;5036908;28;20048;-73
2021/12/28 04:12:41;;;;;;;72.88;31.90;;;;;;;-1.06;100.00;99744.94;5036849;28;20125;-76
2021/12/28 04:15:08;;;;;;;;;;;;;;;-1.03;100.00;99747.34;5038055;28;20037;-74
2021/12/28 04:17:37;;;;;;;78.30;34.05;;;;;;;-1.04;100.00;99748.28;5036274;28;19913;-74
2021/12/28 04:20:06;;;;;;;71.28;32.42;;;;;;;-1.06;100.00;99727.44;5011112;28;20467;-74
2021/12/28 04:22:31;;;;;;;76.05;33.35;;;;;;;-1.07;100.00;99738.03;5036483;28;20101;-74
2021/12/28 04:24:57;;;;;;;83.18;35.28;;;;;;;-1.06;100.00;99743.16;5032767;28;20037;-74
2021/12/28 04:27:22;;;;;;;67.78;29.10;;;;;;;-1.06;100.00;99744.94;5038687;28;20074;-74
2021/12/28 04:29:48;;;;;;;80.40;33.17;;;;;;;-1.08;100.00;99726.75;5035546;28;20036;-74
2021/12/28 04:32:13;;;;;;;76.07;32.23;;;;;;;-1.07;100.00;99722.31;5037022;28;20048;-74
2021/12/28 04:34:39;;;;;;;73.68;32.33;;;;;;;-1.13;100.00;99707.88;5016379;28;20283;-74
2021/12/28 04:37:04;;;;;;;74.05;31.80;;;;;;;-1.10;100.00;99702.44;5019910;28;20033;-74
2021/12/28 04:39:29;;;;;;;74.78;32.95;;;;;;;-1.12;100.00;99709.56;5020044;28;20040;-74
2021/12/28 04:41:55;;;;;;;67.57;29.90;;;;;;;-1.09;100.00;99713.75;5033807;28;20028;-74
2021/12/28 04:44:24;;;;;;;75.00;32.00;;;;;;;-1.14;100.00;99694.91;5038387;28;20310;-74
2021/12/28 04:46:51;;;;;;;73.53;33.15;;;;;;;-1.12;100.00;99704.31;5018000;28;20112;-74
2021/12/28 04:49:17;;;;;;;73.38;31.65;;;;;;;-1.07;100.00;99711.84;5016303;28;20502;-74
2021/12/28 04:51:43;;;;;;;69.03;30.88;;;;;;;-1.10;100.00;99696.34;5033891;28;20123;-74
2021/12/28 04:54:12;;;;;;;80.65;32.88;;;;;;;-1.13;100.00;99686.09;5022024;28;20645;-74
2021/12/28 04:56:39;;;;;;;72.43;31.48;;;;;;;-1.14;100.00;99673.97;5040454;28;20029;-74
2021/12/28 04:59:04;;;;;;;73.88;31.70;;;;;;;-1.13;100.00;99676.44;5019658;28;20062;-74
2021/12/28 05:01:29;;;;;;;76.30;33.78;;;;;;;-1.14;100.00;99681.81;5036134;28;20056;-74
2021/12/28 05:03:55;;;;;;;78.80;31.98;;;;;;;-1.14;100.00;99674.78;5020046;28;20815;-74
2021/12/28 05:06:20;;;;;;;70.35;30.52;;;;;;;-1.16;100.00;99668.00;5020326;28;20033;-74
2021/12/28 05:08:46;;;;;;;69.25;31.45;;;;;;;-1.12;100.00;99679.91;5038067;28;20049;-73
2021/12/28 05:11:11;;;;;;;80.22;34.38;;;;;;;-1.09;100.00;99683.13;5040271;28;20021;-73
2021/12/28 05:13:37;;;;;;;74.60;33.13;;;;;;;-1.12;100.00;99669.44;5039749;28;20045;-74
2021/12/28 05:16:02;;;;;;;71.25;32.03;;;;;;;-1.14;100.00;99668.72;5019844;28;20033;-74
2021/12/28 05:18:28;;;;;;;69.20;31.02;;;;;;;-1.14;100.00;99671.34;5035647;28;20034;-75
2021/12/28 05:20:53;;;;;;;79.30;35.67;;;;;;;-1.14;100.00;99674.78;5040021;28;20041;-74
2021/12/28 05:23:19;;;;;;;88.88;33.88;;;;;;;-1.12;100.00;99678.13;5039797;28;20082;-74
2021/12/28 05:25:44;;;;;;;67.32;31.35;;;;;;;-1.12;100.00;99666.81;5038277;28;20086;-74
2021/12/28 05:28:10;;;;;;;67.30;31.85;;;;;;;-1.12;100.00;99677.31;5019484;28;20874;-74
2021/12/28 05:30:36;;;;;;;66.68;28.92;;;;;;;-1.15;100.00;99674.88;5035987;28;20051;-74
2021/12/28 05:33:02;;;;;;;73.82;30.17;;;;;;;-1.04;100.00;99695.88;5029272;28;20021;-74
2021/12/28 05:35:28;;;;;;;70.28;31.90;;;;;;;-1.08;100.00;99689.19;5043582;28;20029;-73
2021/12/28 05:37:53;;;;;;;76.50;33.67;;;;;;;-1.13;100.00;99676.44;5038386;28;20090;-74
2021/12/28 05:40:19;;;;;;;78.67;33.43;;;;;;;-1.15;100.00;99672.28;5019896;28;20030;-74
2021/12/28 05:42:45;;;;;;;78.57;31.23;;;;;;;-1.09;100.00;99704.09;5037957;28;20292;-74
2021/12/28 05:45:10;;;;;;;82.68;34.55;;;;;;;-1.14;100.00;99684.44;5038835;28;20040;-74
2021/12/28 05:47:36;;;;;;;75.28;32.53;;;;;;;-1.12;100.00;99685.16;5039398;28;20028;-73
2021/12/28 05:50:05;;;;;;;77.80;32.13;;;;;;;-1.15;100.00;99678.38;5022886;28;20029;-74
2021/12/28 05:52:30;;;;;;;79.40;32.60;;;;;;;-1.14;100.00;99673.97;5040268;28;20050;-74
2021/12/28 05:54:55;;;;;;;80.37;33.83;;;;;;;-1.14;100.00;99671.34;5019785;28;20758;-72
2021/12/28 05:57:21;;;;;;;65.90;30.17;;;;;;;-1.18;100.00;99657.63;5036015;28;20288;-74
2021/12/28 05:59:46;;;;;;;73.15;32.28;;;;;;;-1.20;100.00;99669.16;5019084;28;20292;-76
2021/12/28 06:02:12;;;;;;;75.95;33.60;;;;;;;-1.19;100.00;99649.91;5035857;28;20041;-74
2021/12/28 06:04:37;;;;;;;87.93;35.78;;;;;;;-1.19;100.00;99644.66;5035488;28;20099;-76
2021/12/28 06:07:03;;;;;;;83.25;35.83;;;;;;;-1.20;100.00;99656.06;5039167;28;20029;-74
2021/12/28 06:09:29;;;;;;;76.30;33.88;;;;;;;-1.20;100.00;99658.69;5022355;28;20504;-75
2021/12/28 06:11:54;;;;;;;82.53;36.55;;;;;;;-1.21;100.00;99663.09;5037483;28;20048;-75
2021/12/28 06:14:19;;;;;;;74.78;31.85;;;;;;;-1.20;100.00;99677.03;5034077;28;20088;-74
2021/12/28 06:16:45;;;;;;;73.35;32.03;;;;;;;-1.21;100.00;99684.03;5020089;28;20029;-74
2021/12/28 06:19:10;;;;;;;75.20;33.58;;;;;;;-1.19;100.00;99687.38;5033998;28;20045;-74
2021/12/28 06:21:36;;;;;;;82.07;33.60;;;;;;;-1.14;100.00;99698.34;5018805;28;20052;-73
2021/12/28 06:24:04;;;;;;;81.75;35.75;;;;;;;-1.17;100.00;99689.88;5030824;28;20271;-74
2021/12/28 06:26:31;;;;;;;82.30;35.63;;;;;;;-1.19;100.00;99681.31;5038522;28;20654;-74
2021/12/28 06:28:57;;;;;;;74.32;32.10;;;;;;;-1.17;100.00;99689.88;5035851;28;20044;-74
2021/12/28 06:31:23;;;;;;;75.70;31.98;;;;;;;-1.16;100.00;99691.56;5016933;28;20098;-74
2021/12/28 06:33:48;;;;;;;72.30;33.03;;;;;;;-1.21;100.00;99673.56;5036057;28;20091;-74
2021/12/28 06:36:14;;;;;;;81.25;34.53;;;;;;;-1.19;100.00;99679.53;5035068;28;20085;-74
2021/12/28 06:38:39;;;;;;;77.50;33.55;;;;;;;-1.18;100.00;99680.38;5041936;28;20685;-74
2021/12/28 06:41:06;;;;;;;85.43;33.17;;;;;;;-1.17;100.00;99677.63;5021288;28;20852;-74
2021/12/28 06:43:32;;;;;;;81.20;36.28;;;;;;;-1.19;100.00;99681.31;5037978;28;20048;-74
2021/12/28 06:45:57;;;;;;;77.63;34.13;;;;;;;-1.14;100.00;99694.91;5038114;28;20021;-74
2021/12/28 06:48:22;;;;;;;83.03;35.07;;;;;;;-1.15;100.00;99677.50;5037683;28;20502;-74
2021/12/28 06:50:49;;;;;;;86.85;33.53;;;;;;;-1.15;100.00;99672.28;5036761;28;20037;-74
2021/12/28 06:53:15;;;;;;;74.20;32.38;;;;;;;-1.16;100.00;99666.19;5044170;28;20626;-74
2021/12/28 06:55:41;;;;;;;83.60;34.95;;;;;;;-1.15;100.00;99674.88;5029125;28;20087;-74
2021/12/28 06:58:06;;;;;;;77.47;31.08;;;;;;;-1.11;100.00;99687.66;5039493;28;20532;-74
2021/12/28 07:00:33;;;;;;;76.30;35.38;;;;;;;-1.07;100.00;99698.75;5038159;28;20029;-74
2021/12/28 07:02:59;;;;;;;;;;;;;;;-1.06;100.00;99684.69;5018708;28;20033;-74
2021/12/28 07:05:25;;;;;;;80.13;35.80;;;;;;;-1.06;100.00;99680.28;5034465;28;19962;-74
2021/12/28 07:07:50;;;;;;;77.00;34.08;;;;;;;-1.00;100.00;99680.78;5020163;28;20033;-74
2021/12/28 07:10:19;;;;;;;76.28;34.45;;;;;;;-1.02;100.00;99667.78;5039343;28;20513;-73
2021/12/28 07:12:44;;;;;;;85.22;36.88;;;;;;;-0.99;100.00;99667.56;5021289;28;20075;-75
2021/12/28 07:15:10;;;;;;;86.70;34.47;;;;;;;-1.00;100.00;99650.19;5037655;28;20833;-74
2021/12/28 07:17:35;;;;;;;75.18;33.92;;;;;;;-0.94;100.00;99672.44;5037330;28;20124;-74
2021/12/28 07:20:01;;;;;;;85.63;35.63;;;;;;;-0.97;100.00;99654.34;5039037;28;20128;-72
2021/12/28 07:22:26;;;;;;;80.90;35.50;;;;;;;-0.99;100.00;99640.53;5037019;28;20625;-74
2021/12/28 07:24:51;;;;;;;81.30;35.10;;;;;;;-1.02;100.00;99641.59;5036158;28;20084;-74
2021/12/28 07:27:17;;;;;;;74.33;35.13;;;;;;;-0.99;100.00;99643.97;5037539;28;20284;-74
2021/12/28 07:29:42;;;;;;;79.28;33.60;;;;;;;-1.00;100.00;99650.19;5038086;28;20029;-74
2021/12/28 07:32:08;;;;;;;75.32;33.28;;;;;;;-0.97;100.00;99663.03;5035384;28;20039;-74
2021/12/28 07:34:35;;;;;;;75.20;31.88;;;;;;;-0.96;100.00;99666.50;5039559;28;20041;-74
2021/12/28 07:37:01;;;;;;;80.65;35.08;;;;;;;-0.89;100.00;99668.56;5027002;28;20021;-74
2021/12/28 07:39:26;;;;;;;80.55;34.30;;;;;;;-0.93;100.00;99651.38;5044614;28;20048;-74
2021/12/28 07:41:52;;;;;;;81.32;37.22;;;;;;;-0.97;100.00;99642.06;5042007;28;20041;-74
2021/12/28 07:44:18;;;;;;;76.07;33.08;;;;;;;-0.96;100.00;99635.03;5038082;28;20033;-74
2021/12/28 07:46:43;;;;;;;78.10;33.58;;;;;;;-0.89;100.00;99655.44;5018162;28;20026;-74
2021/12/28 07:49:08;;;;;;;81.65;36.13;;;;;;;-0.85;100.00;99650.78;5037314;28;20466;-74
2021/12/28 07:51:34;;;;;;;81.68;34.83;;;;;;;-0.90;100.00;99643.28;5020653;28;20029;-73
2021/12/28 07:53:59;;;;;;;76.03;34.13;;;;;;;-0.95;100.00;99634.94;5033779;28;20430;-74
2021/12/28 07:56:25;;;;;;;93.75;38.28;;;;;;;-0.97;100.00;99628.97;5033585;28;20037;-74
2021/12/28 07:58:51;;;;;;;82.32;36.08;;;;;;;-0.87;100.00;99656.19;5040885;28;20060;-74
2021/12/28 08:01:16;;;;;;;78.47;34.97;;;;;;;-0.95;100.00;99648.03;5029444;28;20132;-74
2021/12/28 08:03:42;;;;;;;82.13;37.20;;;;;;;-1.02;100.00;99633.75;5031481;28;20037;-73
2021/12/28 08:06:07;;;;;;;85.72;37.38;;;;;;;-1.01;100.00;99638.00;5037707;28;20033;-74
2021/12/28 08:08:33;;;;;;;84.00;36.03;;;;;;;-1.07;100.00;99628.84;5011238;28;20096;-75
2021/12/28 08:10:58;;;;;;;83.80;38.03;;;;;;;-0.97;100.00;99651.72;5034038;28;20040;-75
2021/12/28 08:13:24;;;;;;;82.63;36.97;;;;;;;-1.03;100.00;99650.41;5039980;28;20034;-74
2021/12/28 08:15:49;;;;;;;88.65;39.30;;;;;;;-1.01;100.00;99653.72;5035640;28;20041;-74
2021/12/28 08:18:15;;;;;;;99.18;39.80;;;;;;;-1.06;100.00;99653.25;5039663;28;20045;-74
2021/12/28 08:20:40;;;;;;;95.32;39.05;;;;;;;-1.04;100.00;99653.97;5033617;28;20033;-74
2021/12/28 08:23:06;;;;;;;93.00;39.90;;;;;;;-1.04;100.00;99656.59;5041171;28;20032;-74
2021/12/28 08:25:32;;;;;;;91.82;40.50;;;;;;;-1.10;100.00;99643.94;5032927;28;20044;-74
2021/12/28 08:27:58;;;;;;;107.72;41.42;;;;;;;-1.10;100.00;99641.31;5035916;28;20021;-75
2021/12/28 08:30:23;;;;;;;100.65;38.80;;;;;;;-0.95;100.00;99642.81;5038442;28;20114;-74
2021/12/28 08:32:49;;;;;;;90.43;37.72;;;;;;;-0.88;100.00;99636.16;5036095;28;20449;-74
2021/12/28 08:35:16;;;;;;;87.40;39.22;;;;;;;-1.01;100.00;99627.53;5036126;28;20032;-74
2021/12/28 08:37:42;;;;;;;99.68;40.97;;;;;;;-0.97;100.00;99633.38;5034069;28;20033;-74
2021/12/28 08:40:09;;;;;;;93.88;40.03;;;;;;;-0.91;100.00;99644.25;5037181;28;20094;-74
2021/12/28 08:42:35;;;;;;;88.95;38.97;;;;;;;-0.66;100.00;99637.13;5031185;28;20033;-74
2021/12/28 08:45:00;;;;;;;97.70;39.85;;;;;;;-0.82;100.00;99627.00;5014555;28;20038;-74
2021/12/28 08:47:27;;;;;;;92.00;37.80;;;;;;;-0.70;100.00;99633.09;5031552;28;20041;-74
2021/12/28 08:49:58;;;;;;;95.23;38.40;;;;;;;-0.74;100.00;99629.03;5017011;28;20033;-74
2021/12/28 08:52:23;;;;;;;92.38;39.90;;;;;;;-0.78;100.00;99598.75;5035018;28;20287;-74
2021/12/28 08:54:49;;;;;;;90.93;39.72;;;;;;;-0.91;100.00;99594.47;5018432;28;20037;-74
2021/12/28 08:57:16;;;;;;;96.97;41.20;;;;;;;-0.93;100.00;99591.13;5037434;28;20064;-73
2021/12/28 08:59:41;;;;;;;91.60;40.33;;;;;;;-0.93;100.00;99598.97;5030984;28;20163;-74
2021/12/28 09:02:08;;;;;;;84.17;37.73;;;;;;;-0.86;100.00;99617.69;5039848;28;20115;-74
2021/12/28 09:04:34;;;;;;;89.68;40.42;;;;;;;-0.83;100.00;99598.28;5028633;28;20029;-74
2021/12/28 09:06:59;;;;;;;98.32;42.53;;;;;;;-0.92;100.00;99566.56;5041545;28;20633;-73
2021/12/28 09:09:25;;;;;;;103.80;42.10;;;;;;;-0.93;100.00;99583.25;5020244;28;20144;-73
2021/12/28 09:11:50;;;;;;;96.17;40.07;;;;;;;-0.73;100.00;99622.81;5034468;28;20662;-74
2021/12/28 09:14:15;;;;;;;93.53;42.40;;;;;;;-0.61;100.00;99611.38;5035571;28;20406;-74
2021/12/28 09:16:41;;;;;;;94.50;39.60;;;;;;;-0.75;100.00;99581.03;5042860;28;20298;-73
2021/12/28 09:19:06;;;;;;;90.88;39.47;;;;;;;-0.75;100.00;99574.91;5042543;28;20162;-74
2021/12/28 09:21:31;;;;;;;92.80;41.78;;;;;;;-0.70;100.00;99583.28;5042715;28;20055;-74
2021/12/28 09:23:57;;;;;;;87.30;40.88;;;;;;;-0.60;100.00;99588.66;5032771;28;20045;-74
2021/12/28 09:26:22;;;;;;;91.72;39.67;;;;;;;-0.79;100.00;99539.44;5032725;28;20159;-74
2021/12/28 09:28:48;;;;;;;91.10;39.38;;;;;;;-0.83;100.00;99527.53;5034039;28;20119;-73
2021/12/28 09:31:14;;;;;;;98.82;41.10;;;;;;;-0.94;100.00;99502.97;5035927;28;20083;-74
2021/12/28 09:33:39;;;;;;;;;;;;;;;-0.92;100.00;99506.31;5033723;28;20030;-73
2021/12/28 09:36:07;;;;;;;89.80;39.65;;;;;;;-0.87;100.00;99513.81;5035837;28;19924;-73
2021/12/28 09:38:33;;;;;;;93.38;42.03;;;;;;;-0.84;100.00;99526.69;5034210;28;20691;-73
2021/12/28 09:40:59;;;;;;;104.07;42.72;;;;;;;-0.87;100.00;99512.03;5042273;28;20013;-73
2021/12/28 09:43:25;;;;;;;103.93;41.40;;;;;;;-0.86;100.00;99512.88;5043244;28;20070;-74
2021/12/28 09:45:51;;;;;;;102.32;39.90;;;;;;;-0.71;100.00;99544.91;5034468;28;20041;-73
2021/12/28 09:48:16;;;;;;;99.32;42.28;;;;;;;-0.79;100.00;99500.13;5019009;28;20025;-74
2021/12/28 09:50:41;;;;;;;102.78;41.25;;;;;;;-0.75;100.00;99496.28;5037706;28;20037;-73
2021/12/28 09:53:13;;;;;;;97.68;39.50;;;;;;;-0.58;100.00;99518.56;5039159;28;20106;-73
2021/12/28 09:55:39;;;;;;;92.40;37.30;;;;;;;-0.62;100.00;99496.16;5044805;28;20062;-73
2021/12/28 09:58:04;;;;;;;96.72;40.92;;;;;;;-0.72;100.00;99473.31;5047234;28;20104;-73
2021/12/28 10:00:30;;;;;;;97.13;39.05;;;;;;;-0.61;100.00;99479.47;5023016;28;20029;-74
2021/12/28 10:02:55;;;;;;;99.78;41.20;;;;;;;-0.59;100.00;99475.78;5039377;28;20045;-74
2021/12/28 10:05:23;;;;;;;87.65;37.92;;;;;;;-0.37;100.00;99510.78;5022412;28;20048;-75
2021/12/28 10:07:56;;;;;;;113.00;43.25;;;;;;;-0.59;100.00;99443.50;5018229;28;20151;-74
2021/12/28 10:10:42;;;;;;;85.75;39.85;;;;;;;-0.66;100.00;99446.63;5038801;28;20044;-73
2021/12/28 10:13:19;;;;;;;97.30;41.17;;;;;;;-0.55;100.00;99458.84;5024727;28;20072;-74
2021/12/28 10:15:45;;;;;;;101.13;40.72;;;;;;;-0.61;100.00;99440.16;5037575;28;20029;-74
2021/12/28 10:18:12;;;;;;;98.25;45.28;;;;;;;-0.71;100.00;99413.84;5045410;28;20041;-74
2021/12/28 10:20:43;;;;;;;93.70;40.90;;;;;;;-0.68;100.00;99424.94;5028107;28;20040;-73
2021/12/28 10:23:13;;;;;;;93.60;41.22;;;;;;;-0.62;100.00;99422.78;5045200;28;20033;-74
2021/12/28 10:25:41;;;;;;;97.07;40.45;;;;;;;-0.49;100.00;99461.00;5037240;28;20403;-74
2021/12/28 10:28:11;;;;;;;93.60;40.80;;;;;;;-0.49;100.00;99426.91;5038745;28;20024;-74
2021/12/28 10:30:40;;;;;;;94.53;41.47;;;;;;;-0.54;100.00;99425.59;5044429;28;20037;-73
2021/12/28 10:33:15;;;;;;;87.72;40.40;;;;;;;-0.46;100.00;99438.94;5044936;28;20102;-74
2021/12/28 10:35:47;;;;;;;74.23;30.60;;;;;;;-0.41;100.00;99452.50;5026803;28;20032;-74
2021/12/28 10:38:21;;;;;;;98.28;40.75;;;;;;;-0.46;100.00;99424.03;5040318;28;20494;-74
2021/12/28 10:40:51;;;;;;;95.95;41.83;;;;;;;-0.54;100.00;99418.59;5035594;28;20064;-74
2021/12/28 10:43:28;;;;;;;97.35;42.60;;;;;;;-0.66;100.00;99396.81;5038000;28;20057;-74
2021/12/28 10:46:00;;;;;;;113.47;44.30;;;;;;;-0.65;100.00;99403.72;5036719;28;20037;-74
2021/12/28 10:48:51;;;;;;;95.28;41.72;;;;;;;-0.62;100.00;99410.50;5027488;28;20056;-73
2021/12/28 10:51:24;;;;;;;106.72;44.63;;;;;;;-0.57;100.00;99412.75;5030391;28;20033;-73
2021/12/28 10:54:02;;;;;;;102.88;43.47;;;;;;;-0.46;100.00;99431.06;5019332;28;20033;-73
2021/12/28 10:56:30;;;;;;;101.80;42.00;;;;;;;-0.49;100.00;99403.31;5038111;28;20060;-73
2021/12/28 10:58:57;;;;;;;90.57;41.97;;;;;;;-0.46;100.00;99403.03;5035199;28;20037;-74
2021/12/28 11:01:24;;;;;;;;;;;;;;;-0.37;100.00;99413.75;5041125;28;20047;-74
2021/12/28 11:03:54;;;;;;;94.03;42.22;;;;;;;-0.44;100.00;99390.66;5035416;28;19912;-74
2021/12/28 11:06:28;;;;;;;100.28;44.33;;;;;;;-0.33;100.00;99407.28;5037727;28;20024;-74
2021/12/28 11:09:00;;;;;;;92.63;39.17;;;;;;;-0.30;100.00;99414.91;5044348;28;20029;-74
2021/12/28 11:11:26;;;;;;;101.97;42.08;;;;;;;-0.11;100.00;99433.44;5043951;28;20041;-74